createdAt,value
2023-01-21T00:25:20.594Z,-7
2023-01-21T00:40:22.821Z,-7
2023-01-21T00:55:23.724Z,-7
2023-01-21T01:10:24.692Z,-7
2023-01-21T01:25:21.031Z,-5
2023-01-21T01:40:22.435Z,-6
2023-01-21T01:55:23.783Z,-6
2023-01-21T02:25:28.471Z,-4
2023-01-21T03:25:50.279Z,-6
2023-01-21T03:40:52.847Z,-6
2023-01-21T03:55:54.085Z,-6
2023-01-21T04:25:49.311Z,-4
2023-01-21T04:40:52.313Z,-4
2023-01-21T04:55:53.224Z,-4
2023-01-21T05:10:53.788Z,-4
2023-01-21T05:25:57.770Z,-3
2023-01-21T05:40:59.458Z,-3
2023-01-21T05:56:00.707Z,-3
2023-01-21T06:11:01.551Z,-3
2023-01-21T06:26:09.481Z,-2
2023-01-21T06:41:11.433Z,-2
2023-01-21T06:56:12.938Z,-2
2023-01-21T07:11:13.647Z,-2
2023-01-21T07:26:19.050Z,-2
2023-01-21T07:41:21.773Z,-2
2023-01-21T07:56:21.863Z,-2
2023-01-21T09:26:39.181Z,0
2023-01-21T09:41:41.539Z,0
2023-01-21T09:56:43.739Z,0
2023-01-21T10:11:46.111Z,0
2023-01-21T10:27:01.630Z,0
2023-01-21T10:42:04.221Z,0
2023-01-21T10:57:04.970Z,0
2023-01-21T11:12:06.375Z,0
2023-01-21T13:27:21.116Z,2
2023-01-21T13:42:23.108Z,2
2023-01-21T13:57:23.944Z,2
2023-01-21T14:12:24.830Z,2
2023-01-21T14:27:46.563Z,2
2023-01-21T15:27:40.356Z,1
2023-01-21T15:42:43.398Z,1
2023-01-21T15:57:44.107Z,2
2023-01-21T16:12:45.165Z,2
2023-01-21T16:27:51.006Z,2
2023-01-21T16:42:54.282Z,2
2023-01-21T16:57:55.203Z,2
2023-01-21T17:12:55.945Z,2
2023-01-21T17:28:00.086Z,3
2023-01-21T17:43:03.523Z,3
2023-01-21T17:58:04.337Z,3
2023-01-21T19:29:10.497Z,6
2023-01-21T19:34:28.735Z,6
2023-01-21T21:28:52.868Z,5
2023-01-21T21:43:55.461Z,5
2023-01-21T21:58:56.512Z,5
2023-01-21T22:13:58.195Z,5
2023-01-21T22:28:52.346Z,6
2023-01-21T23:29:01.156Z,5
2023-01-21T23:44:03.639Z,5
2023-01-21T23:59:05.072Z,5
